createdAt,value
2022-11-25T00:01:20.462Z,10.50
2022-11-25T00:03:48.092Z,10.50
2022-11-25T00:06:26.913Z,10.50
2022-11-25T00:09:05.397Z,10.50
2022-11-25T00:11:35.548Z,10.50
2022-11-25T00:14:03.635Z,10.50
2022-11-25T00:16:30.888Z,10.60
2022-11-25T00:18:58.659Z,10.60
2022-11-25T00:21:28.104Z,10.60
2022-11-25T00:24:00.202Z,10.60
2022-11-25T00:26:28.519Z,10.60
2022-11-25T00:28:58.079Z,10.70
2022-11-25T00:31:27.060Z,10.70
2022-11-25T00:33:55.294Z,10.70
2022-11-25T00:36:41.424Z,10.70
2022-11-25T00:39:12.976Z,10.70
2022-11-25T00:41:58.232Z,10.60
2022-11-25T00:44:38.082Z,10.70
2022-11-25T00:47:07.114Z,10.60
2022-11-25T00:49:33.985Z,10.50
2022-11-25T00:52:01.999Z,10.50
2022-11-25T00:54:28.829Z,10.50
2022-11-25T00:56:55.591Z,10.50
2022-11-25T00:59:24.175Z,10.50
2022-11-25T01:01:51.235Z,10.50
2022-11-25T01:04:17.984Z,10.40
2022-11-25T01:06:45.788Z,10.40
2022-11-25T01:09:14.912Z,10.30
2022-11-25T01:11:41.826Z,10.30
2022-11-25T01:14:09.171Z,10.20
2022-11-25T01:16:37.014Z,10.10
2022-11-25T01:19:04.591Z,10.00
2022-11-25T01:21:33.124Z,10.10
2022-11-25T01:24:01.585Z,10.10
2022-11-25T01:26:29.677Z,10.00
2022-11-25T01:29:04.025Z,10.00
2022-11-25T01:31:33.397Z,10.10
2022-11-25T01:34:11.613Z,10.00
2022-11-25T01:36:38.324Z,10.10
2022-11-25T01:39:05.653Z,10.00
2022-11-25T01:41:34.568Z,10.00
2022-11-25T01:44:09.137Z,10.00
2022-11-25T01:47:15.270Z,10.00
2022-11-25T01:49:47.755Z,10.00
2022-11-25T01:52:31.317Z,10.00
2022-11-25T01:55:10.599Z,10.00
2022-11-25T01:57:44.428Z,10.00
2022-11-25T02:00:11.898Z,10.10
2022-11-25T02:02:38.765Z,10.10
2022-11-25T02:05:10.863Z,10.10
2022-11-25T02:07:42.683Z,10.10
2022-11-25T02:10:14.484Z,10.10
2022-11-25T02:12:43.327Z,10.10
2022-11-25T02:15:11.104Z,10.10
2022-11-25T02:17:38.245Z,10.10
2022-11-25T02:20:07.300Z,10.10
2022-11-25T02:23:09.689Z,10.10
2022-11-25T02:25:39.472Z,10.10
2022-11-25T02:28:10.449Z,10.10
2022-11-25T02:30:37.855Z,10.10
2022-11-25T02:33:05.077Z,10.10
2022-11-25T02:35:41.136Z,10.10
2022-11-25T02:38:42.579Z,10.20
2022-11-25T02:41:33.670Z,10.20
2022-11-25T02:44:01.486Z,10.20
2022-11-25T02:46:29.928Z,10.20
2022-11-25T02:49:14.783Z,10.20
2022-11-25T02:51:44.807Z,10.20
2022-11-25T02:54:15.956Z,10.30
2022-11-25T02:56:43.340Z,10.30
2022-11-25T02:59:10.757Z,10.30
2022-11-25T03:01:38.685Z,10.40
2022-11-25T03:04:05.975Z,10.40
2022-11-25T03:06:33.649Z,10.40
2022-11-25T03:09:02.005Z,10.50
2022-11-25T03:11:47.454Z,10.50
2022-11-25T03:14:14.478Z,10.50
2022-11-25T03:16:41.546Z,10.40
2022-11-25T03:19:08.714Z,10.50
2022-11-25T03:21:35.811Z,10.60
2022-11-25T03:24:02.614Z,10.60
2022-11-25T03:26:31.733Z,10.60
2022-11-25T03:28:58.470Z,10.70
2022-11-25T03:31:25.518Z,10.70
2022-11-25T03:33:52.466Z,10.70
2022-11-25T03:36:20.917Z,10.70
2022-11-25T03:38:47.642Z,10.80
2022-11-25T03:41:14.422Z,10.80
2022-11-25T03:43:42.682Z,10.70
2022-11-25T03:46:09.448Z,10.70
2022-11-25T03:48:36.485Z,10.70
2022-11-25T03:51:03.531Z,10.70
2022-11-25T03:53:30.320Z,10.70
2022-11-25T03:55:57.408Z,10.70
2022-11-25T03:58:24.166Z,10.70
2022-11-25T04:00:50.951Z,10.70
2022-11-25T04:03:17.748Z,10.70
2022-11-25T04:05:45.617Z,10.80
2022-11-25T04:08:12.737Z,10.80
2022-11-25T04:10:40.856Z,10.80
2022-11-25T04:13:07.647Z,10.80
2022-11-25T04:15:35.156Z,10.80
2022-11-25T04:18:03.168Z,10.80
2022-11-25T04:20:29.945Z,10.80
2022-11-25T04:22:56.676Z,10.80
2022-11-25T04:25:23.404Z,10.80
2022-11-25T04:27:50.170Z,10.80
2022-11-25T04:30:16.965Z,10.80
2022-11-25T04:32:43.724Z,10.80
2022-11-25T04:35:10.582Z,10.80
2022-11-25T04:37:37.320Z,10.90
2022-11-25T04:40:05.754Z,10.90
2022-11-25T04:42:32.560Z,11.00
2022-11-25T04:45:22.084Z,11.00
2022-11-25T04:47:47.590Z,11.10
2022-11-25T04:50:19.218Z,11.10
2022-11-25T04:52:46.094Z,11.10
2022-11-25T04:55:12.943Z,11.20
2022-11-25T04:57:39.811Z,11.20
2022-11-25T05:00:07.954Z,11.20
2022-11-25T05:02:34.893Z,11.20
2022-11-25T05:05:01.734Z,11.10
2022-11-25T05:07:29.534Z,11.10
2022-11-25T05:09:56.585Z,11.20
2022-11-25T05:12:26.999Z,11.20
2022-11-25T05:14:54.123Z,11.20
2022-11-25T05:17:23.629Z,11.20
2022-11-25T05:19:51.093Z,11.20
2022-11-25T05:22:21.169Z,11.20
2022-11-25T05:24:47.922Z,11.20
2022-11-25T05:27:15.945Z,11.30
2022-11-25T05:29:43.140Z,11.30
2022-11-25T05:32:10.435Z,11.30
2022-11-25T05:34:38.398Z,11.30
2022-11-25T05:37:05.527Z,11.30
2022-11-25T05:39:32.335Z,11.30
2022-11-25T05:41:59.083Z,11.30
2022-11-25T05:44:26.276Z,11.30
2022-11-25T05:46:53.229Z,11.30
2022-11-25T05:49:20.997Z,11.30
2022-11-25T05:51:48.327Z,11.40
2022-11-25T05:54:15.204Z,11.40
2022-11-25T05:56:41.973Z,11.40
2022-11-25T05:59:08.735Z,11.40
2022-11-25T06:01:35.570Z,11.40
2022-11-25T06:04:04.999Z,11.40
2022-11-25T06:06:32.562Z,11.40
2022-11-25T06:08:59.843Z,11.40
2022-11-25T06:11:26.697Z,11.40
2022-11-25T06:13:53.624Z,11.40
2022-11-25T06:16:22.578Z,11.40
2022-11-25T06:18:50.316Z,11.40
2022-11-25T06:21:17.811Z,11.40
2022-11-25T06:23:48.441Z,11.40
2022-11-25T06:26:19.937Z,11.30
2022-11-25T06:28:47.164Z,11.30
2022-11-25T06:31:17.795Z,11.20
2022-11-25T06:33:50.727Z,11.20
2022-11-25T06:36:19.019Z,11.20
2022-11-25T06:38:51.959Z,11.10
2022-11-25T06:41:19.842Z,11.10
2022-11-25T06:43:47.158Z,11.10
2022-11-25T06:46:19.874Z,11.10
2022-11-25T06:48:51.091Z,11.10
2022-11-25T06:51:18.024Z,11.10
2022-11-25T06:53:45.040Z,11.10
2022-11-25T06:56:23.426Z,11.00
2022-11-25T06:58:51.337Z,11.00
2022-11-25T07:01:20.642Z,11.00
2022-11-25T07:03:48.968Z,11.00
2022-11-25T07:06:17.779Z,10.90
2022-11-25T07:08:46.404Z,10.90
2022-11-25T07:11:18.382Z,10.90
2022-11-25T07:13:48.019Z,10.90
2022-11-25T07:16:18.730Z,10.90
2022-11-25T07:18:45.597Z,11.00
2022-11-25T07:21:18.837Z,11.00
2022-11-25T07:23:46.629Z,11.00
2022-11-25T07:26:16.737Z,11.00
2022-11-25T07:28:44.157Z,11.00
2022-11-25T07:31:25.149Z,11.00
2022-11-25T07:33:58.580Z,11.10
2022-11-25T07:36:25.844Z,11.10
2022-11-25T07:38:53.256Z,11.10
2022-11-25T07:41:23.043Z,11.10
2022-11-25T07:43:52.647Z,11.10
2022-11-25T07:46:27.121Z,11.10
2022-11-25T07:48:56.260Z,11.10
2022-11-25T07:51:47.466Z,11.10
2022-11-25T07:54:14.680Z,11.20
2022-11-25T07:56:44.722Z,11.20
2022-11-25T07:59:14.527Z,11.20
2022-11-25T08:01:42.018Z,11.20
2022-11-25T08:04:12.780Z,11.30
2022-11-25T08:06:45.270Z,11.30
2022-11-25T08:09:15.915Z,11.30
2022-11-25T08:11:42.745Z,11.30
2022-11-25T08:14:10.711Z,11.40
2022-11-25T08:16:38.599Z,11.40
2022-11-25T08:19:09.903Z,11.50
2022-11-25T08:21:36.601Z,11.60
2022-11-25T08:24:03.529Z,11.80
2022-11-25T08:26:38.530Z,11.90
2022-11-25T08:29:06.999Z,12.20
2022-11-25T08:31:36.697Z,12.40
2022-11-25T08:34:05.735Z,12.50
2022-11-25T08:36:34.996Z,12.70
2022-11-25T08:39:22.565Z,12.80
2022-11-25T08:41:55.703Z,13.00
2022-11-25T08:44:22.576Z,13.10
2022-11-25T08:46:50.459Z,13.20
2022-11-25T08:49:17.405Z,13.30
2022-11-25T08:51:44.260Z,13.40
2022-11-25T08:54:11.369Z,13.40
2022-11-25T08:56:44.107Z,13.50
2022-11-25T08:59:13.409Z,13.60
2022-11-25T09:01:40.243Z,13.70
2022-11-25T09:04:07.056Z,13.70
2022-11-25T09:06:33.793Z,13.80
2022-11-25T09:09:02.253Z,13.80
2022-11-25T09:11:29.342Z,13.80
2022-11-25T09:13:56.273Z,13.80
2022-11-25T09:16:25.089Z,13.80
2022-11-25T09:18:56.446Z,13.80
2022-11-25T09:21:27.527Z,13.80
2022-11-25T09:23:57.525Z,13.90
2022-11-25T09:26:30.126Z,13.90
2022-11-25T09:28:57.204Z,14.00
2022-11-25T09:31:24.534Z,14.00
2022-11-25T09:33:51.440Z,14.10
2022-11-25T09:36:19.767Z,14.10
2022-11-25T09:38:47.327Z,14.10
2022-11-25T09:42:33.716Z,14.10
2022-11-25T09:45:19.222Z,14.10
2022-11-25T09:48:10.100Z,14.10
2022-11-25T09:50:56.441Z,14.10
2022-11-25T09:53:28.899Z,14.10
2022-11-25T09:56:02.550Z,14.10
2022-11-25T09:58:59.884Z,14.10
2022-11-25T10:01:29.858Z,14.20
2022-11-25T10:04:10.025Z,14.20
2022-11-25T10:06:46.652Z,14.30
2022-11-25T10:09:22.141Z,14.40
2022-11-25T10:12:06.144Z,14.40
2022-11-25T10:14:59.756Z,14.30
2022-11-25T10:17:43.239Z,14.40
2022-11-25T10:20:15.141Z,14.40
2022-11-25T10:22:45.577Z,14.40
2022-11-25T10:25:29.490Z,14.40
2022-11-25T10:28:02.164Z,14.40
2022-11-25T10:30:43.248Z,14.40
2022-11-25T10:33:33.646Z,14.40
2022-11-25T10:36:10.701Z,14.40
2022-11-25T10:38:58.599Z,14.40
2022-11-25T10:41:29.886Z,14.30
2022-11-25T10:43:56.972Z,14.30
2022-11-25T10:47:11.198Z,14.30
2022-11-25T10:49:28.322Z,14.40
2022-11-25T10:51:57.548Z,14.50
2022-11-25T10:54:29.174Z,14.50
2022-11-25T10:57:01.159Z,14.50
2022-11-25T10:59:38.270Z,14.50
2022-11-25T11:02:16.585Z,14.50
2022-11-25T11:05:04.253Z,14.50
2022-11-25T11:07:33.959Z,14.50
2022-11-25T11:10:25.515Z,14.60
2022-11-25T11:12:59.674Z,14.60
2022-11-25T11:15:26.408Z,14.60
2022-11-25T11:17:54.761Z,14.70
2022-11-25T11:20:29.576Z,14.70
2022-11-25T11:23:09.496Z,14.80
2022-11-25T11:25:42.271Z,14.90
2022-11-25T11:28:34.925Z,14.80
2022-11-25T11:31:25.841Z,14.80
2022-11-25T11:34:23.381Z,14.80
2022-11-25T11:37:14.840Z,14.80
2022-11-25T11:40:00.306Z,14.80
2022-11-25T11:43:04.084Z,14.70
2022-11-25T11:45:45.928Z,14.70
2022-11-25T11:48:29.890Z,14.60
2022-11-25T11:51:25.447Z,14.60
2022-11-25T11:54:16.881Z,14.60
2022-11-25T11:56:55.425Z,14.50
2022-11-25T11:59:40.229Z,14.60
2022-11-25T12:02:25.844Z,14.50
2022-11-25T12:05:10.597Z,14.50
2022-11-25T12:08:05.553Z,14.50
2022-11-25T12:10:37.027Z,14.50
2022-11-25T12:13:42.868Z,14.50
2022-11-25T12:16:26.503Z,14.50
2022-11-25T12:19:25.652Z,14.50
2022-11-25T12:22:02.407Z,14.50
2022-11-25T12:24:54.412Z,14.50
2022-11-25T12:27:29.360Z,14.50
2022-11-25T12:30:12.137Z,14.60
2022-11-25T12:32:57.891Z,14.60
2022-11-25T12:35:55.333Z,14.60
2022-11-25T12:38:25.359Z,14.60
2022-11-25T12:41:02.692Z,14.60
2022-11-25T12:43:45.093Z,14.60
2022-11-25T12:46:26.863Z,14.60
2022-11-25T12:48:56.923Z,14.60
2022-11-25T12:52:11.140Z,14.60
2022-11-25T12:55:04.458Z,14.60
2022-11-25T12:57:55.883Z,14.60
2022-11-25T13:00:43.559Z,14.60
2022-11-25T13:04:05.134Z,14.60
2022-11-25T13:06:46.022Z,14.60
2022-11-25T13:09:18.679Z,14.60
2022-11-25T13:12:17.334Z,14.60
2022-11-25T13:15:16.207Z,14.60
2022-11-25T13:17:48.466Z,14.50
2022-11-25T13:20:28.601Z,14.60
2022-11-25T13:23:07.729Z,14.60
2022-11-25T13:25:37.324Z,14.60
2022-11-25T13:28:06.838Z,14.50
2022-11-25T13:30:33.623Z,14.60
2022-11-25T13:33:09.579Z,14.50
2022-11-25T13:35:38.052Z,14.50
2022-11-25T13:38:29.024Z,14.50
2022-11-25T13:41:12.310Z,14.50
2022-11-25T13:43:52.135Z,14.40
2022-11-25T13:46:52.437Z,14.50
2022-11-25T13:49:24.714Z,14.50
2022-11-25T13:52:04.886Z,14.60
2022-11-25T13:54:55.208Z,14.60
2022-11-25T13:57:29.529Z,14.60
2022-11-25T14:00:01.210Z,14.60
2022-11-25T14:02:28.209Z,14.60
2022-11-25T14:05:52.023Z,14.60
2022-11-25T14:09:09.975Z,14.60
2022-11-25T14:12:01.914Z,14.60
2022-11-25T14:15:16.514Z,14.60
2022-11-25T14:18:11.370Z,14.60
2022-11-25T14:20:59.983Z,14.60
2022-11-25T14:23:42.826Z,14.60
2022-11-25T14:26:41.735Z,14.60
2022-11-25T14:29:11.620Z,14.60
2022-11-25T14:31:45.932Z,14.60
2022-11-25T14:34:34.503Z,14.60
2022-11-25T14:37:09.781Z,14.70
2022-11-25T14:39:46.618Z,14.70
2022-11-25T14:42:17.829Z,14.70
2022-11-25T14:44:59.354Z,14.70
2022-11-25T14:47:28.296Z,14.70
2022-11-25T14:52:47.732Z,14.60
2022-11-25T14:55:26.610Z,14.60
2022-11-25T14:57:53.468Z,14.60
2022-11-25T15:00:20.528Z,14.60
2022-11-25T15:03:02.122Z,14.60
2022-11-25T15:05:38.173Z,14.60
2022-11-25T15:08:17.613Z,14.50
2022-11-25T15:10:52.972Z,14.60
2022-11-25T15:13:35.587Z,14.60
2022-11-25T15:16:12.193Z,14.50
2022-11-25T15:19:03.534Z,14.50
2022-11-25T15:21:53.766Z,14.50
2022-11-25T15:24:43.052Z,14.50
2022-11-25T15:27:20.637Z,14.40
2022-11-25T15:29:48.894Z,14.50
2022-11-25T15:32:24.565Z,14.40
2022-11-25T15:34:53.501Z,14.40
2022-11-25T15:37:21.415Z,14.40
2022-11-25T15:39:48.187Z,14.40
2022-11-25T15:42:25.267Z,14.30
2022-11-25T15:45:06.964Z,14.30
2022-11-25T15:47:35.621Z,14.20
2022-11-25T15:50:02.376Z,14.20
2022-11-25T15:52:33.171Z,14.20
2022-11-25T15:55:07.720Z,14.10
2022-11-25T15:57:36.926Z,14.20
2022-11-25T16:00:17.142Z,14.10
2022-11-25T16:02:44.306Z,14.10
2022-11-25T16:05:14.194Z,14.10
2022-11-25T16:07:56.967Z,14.10
2022-11-25T16:10:27.274Z,14.00
2022-11-25T16:13:26.031Z,14.00
2022-11-25T16:16:08.067Z,14.00
2022-11-25T16:18:59.768Z,14.00
2022-11-25T16:21:33.068Z,13.90
2022-11-25T16:24:11.546Z,13.90
2022-11-25T16:26:40.287Z,13.90
2022-11-25T16:29:27.690Z,13.90
2022-11-25T16:31:54.842Z,13.90
2022-11-25T16:34:24.498Z,13.90
2022-11-25T16:36:51.707Z,13.90
2022-11-25T16:39:18.709Z,13.80
2022-11-25T16:41:58.517Z,13.80
2022-11-25T16:44:27.159Z,13.70
2022-11-25T16:46:54.446Z,13.70
2022-11-25T16:49:22.625Z,13.70
2022-11-25T16:51:57.855Z,13.60
2022-11-25T16:54:24.694Z,13.60
2022-11-25T16:56:54.973Z,13.70
2022-11-25T16:59:34.677Z,13.60
2022-11-25T17:02:02.064Z,13.50
2022-11-25T17:04:28.987Z,13.50
2022-11-25T17:07:30.490Z,13.50
2022-11-25T17:09:44.382Z,13.50
2022-11-25T17:12:17.091Z,13.50
2022-11-25T17:14:45.394Z,13.50
2022-11-25T17:17:22.569Z,13.50
2022-11-25T17:19:51.445Z,13.50
2022-11-25T17:22:23.915Z,13.50
2022-11-25T17:24:51.056Z,13.50
2022-11-25T17:27:25.099Z,13.50
2022-11-25T17:29:52.495Z,13.50
2022-11-25T17:32:19.452Z,13.50
2022-11-25T17:34:46.220Z,13.50
2022-11-25T17:37:23.161Z,13.50
2022-11-25T17:39:52.952Z,13.50
2022-11-25T17:42:25.574Z,13.50
2022-11-25T17:44:54.276Z,13.50
2022-11-25T17:47:21.468Z,13.50
2022-11-25T17:49:49.540Z,13.50
2022-11-25T17:52:16.354Z,13.50
2022-11-25T17:54:43.156Z,13.50
2022-11-25T17:57:19.915Z,13.50
2022-11-25T17:59:46.798Z,13.50
2022-11-25T18:02:19.012Z,13.40
2022-11-25T18:04:46.083Z,13.40
2022-11-25T18:07:16.828Z,13.40
2022-11-25T18:09:44.602Z,13.40
2022-11-25T18:12:28.814Z,13.50
2022-11-25T18:14:56.796Z,13.50
2022-11-25T18:17:23.660Z,13.50
2022-11-25T18:19:55.227Z,13.50
2022-11-25T18:22:24.183Z,13.50
2022-11-25T18:24:51.227Z,13.50
2022-11-25T18:27:27.684Z,13.50
2022-11-25T18:29:55.561Z,13.60
2022-11-25T18:32:23.590Z,13.60
2022-11-25T18:34:50.780Z,13.60
2022-11-25T18:37:18.053Z,13.60
2022-11-25T18:39:44.862Z,13.60
2022-11-25T18:42:26.383Z,13.60
2022-11-25T18:44:55.398Z,13.60
2022-11-25T18:47:22.206Z,13.50
2022-11-25T18:49:55.112Z,13.50
2022-11-25T18:52:22.564Z,13.50
2022-11-25T18:54:49.883Z,13.50
2022-11-25T18:57:16.916Z,13.50
2022-11-25T18:59:48.067Z,13.50
2022-11-25T19:02:23.084Z,13.50
2022-11-25T19:04:50.233Z,13.50
2022-11-25T19:07:18.220Z,13.50
2022-11-25T19:09:45.004Z,13.50
2022-11-25T19:12:19.153Z,13.50
2022-11-25T19:14:47.018Z,13.50
2022-11-25T19:17:24.706Z,13.50
2022-11-25T19:19:52.721Z,13.50
2022-11-25T19:22:23.811Z,13.50
2022-11-25T19:24:53.168Z,13.50
2022-11-25T19:27:23.612Z,13.50
2022-11-25T19:29:53.431Z,13.50
2022-11-25T19:32:30.919Z,13.50
2022-11-25T19:35:05.364Z,13.40
2022-11-25T19:37:32.141Z,13.40
2022-11-25T19:39:58.966Z,13.40
2022-11-25T19:42:28.440Z,13.40
2022-11-25T19:44:55.268Z,13.40
2022-11-25T19:47:24.882Z,13.40
2022-11-25T19:49:54.512Z,13.30
2022-11-25T19:52:27.019Z,13.40
2022-11-25T19:54:53.760Z,13.30
2022-11-25T19:57:22.936Z,13.30
2022-11-25T19:59:50.023Z,13.30
2022-11-25T20:02:20.908Z,13.30
2022-11-25T20:04:51.018Z,13.30
2022-11-25T20:07:20.466Z,13.30
2022-11-25T20:09:47.987Z,13.20
2022-11-25T20:12:22.636Z,13.20
2022-11-25T20:14:50.548Z,13.20
2022-11-25T20:17:25.886Z,13.10
2022-11-25T20:19:54.748Z,13.10
2022-11-25T20:22:28.157Z,13.10
2022-11-25T20:24:55.864Z,13.10
2022-11-25T20:27:27.593Z,13.00
2022-11-25T20:29:54.804Z,13.00
2022-11-25T20:32:34.084Z,12.90
2022-11-25T20:35:01.875Z,12.90
2022-11-25T20:37:30.146Z,12.90
2022-11-25T20:39:59.968Z,12.90
2022-11-25T20:42:27.619Z,12.80
2022-11-25T20:44:57.746Z,12.80
2022-11-25T20:47:28.714Z,12.70
2022-11-25T20:49:55.665Z,12.70
2022-11-25T20:52:30.874Z,12.70
2022-11-25T20:55:00.214Z,12.60
2022-11-25T20:57:27.097Z,12.60
2022-11-25T20:59:53.800Z,12.50
2022-11-25T21:02:22.015Z,12.50
2022-11-25T21:04:49.791Z,12.50
2022-11-25T21:07:18.794Z,12.40
2022-11-25T21:09:45.631Z,12.40
2022-11-25T21:12:18.907Z,12.40
2022-11-25T21:14:47.171Z,12.30
2022-11-25T21:17:13.932Z,12.30
2022-11-25T21:19:40.735Z,12.30
2022-11-25T21:22:10.986Z,12.30
2022-11-25T21:24:41.124Z,12.20
2022-11-25T21:27:14.906Z,12.20
2022-11-25T21:29:44.993Z,12.10
2022-11-25T21:32:25.266Z,12.10
2022-11-25T21:34:52.649Z,12.00
2022-11-25T21:37:27.731Z,12.00
2022-11-25T21:39:54.609Z,11.90
2022-11-25T21:42:22.950Z,11.90
2022-11-25T21:44:51.090Z,11.90
2022-11-25T21:47:28.408Z,11.80
2022-11-25T21:49:55.552Z,11.70
2022-11-25T21:52:22.274Z,11.70
2022-11-25T21:54:49.033Z,11.70
2022-11-25T21:57:18.235Z,11.70
2022-11-25T21:59:46.531Z,11.60
2022-11-25T22:02:22.367Z,11.60
2022-11-25T22:04:49.859Z,11.60
2022-11-25T22:07:16.985Z,11.60
2022-11-25T22:09:44.023Z,11.50
2022-11-25T22:12:33.326Z,11.50
2022-11-25T22:15:02.815Z,11.50
2022-11-25T22:17:30.368Z,11.40
2022-11-25T22:19:57.724Z,11.40
2022-11-25T22:22:24.548Z,11.30
2022-11-25T22:24:51.326Z,11.30
2022-11-25T22:27:22.508Z,11.30
2022-11-25T22:29:49.939Z,11.30
2022-11-25T22:32:17.848Z,11.20
2022-11-25T22:34:44.938Z,11.20
2022-11-25T22:37:20.168Z,11.20
2022-11-25T22:39:49.818Z,11.10
2022-11-25T22:42:24.825Z,11.10
2022-11-25T22:44:52.756Z,11.10
2022-11-25T22:47:35.114Z,11.00
2022-11-25T22:50:05.169Z,11.00
2022-11-25T22:52:34.255Z,10.90
2022-11-25T22:55:14.788Z,10.90
2022-11-25T22:57:41.501Z,10.90
2022-11-25T23:00:11.674Z,10.90
2022-11-25T23:02:38.611Z,10.80
2022-11-25T23:05:13.489Z,10.80
2022-11-25T23:07:40.567Z,10.80
2022-11-25T23:10:16.065Z,10.70
2022-11-25T23:12:43.231Z,10.70
2022-11-25T23:15:17.320Z,10.70
2022-11-25T23:17:47.280Z,10.70
2022-11-25T23:20:21.199Z,10.70
2022-11-25T23:22:48.484Z,10.70
2022-11-25T23:25:18.359Z,10.60
2022-11-25T23:27:45.829Z,10.60
2022-11-25T23:30:21.093Z,10.60
2022-11-25T23:32:53.052Z,10.60
2022-11-25T23:35:25.587Z,10.50
2022-11-25T23:37:57.733Z,10.50
2022-11-25T23:40:26.154Z,10.50
2022-11-25T23:42:55.494Z,10.50
2022-11-25T23:45:25.542Z,10.40
2022-11-25T23:47:54.239Z,10.50
2022-11-25T23:50:33.017Z,10.40
2022-11-25T23:53:07.409Z,10.40
2022-11-25T23:55:37.289Z,10.30
2022-11-25T23:58:15.924Z,10.30
